hasanyilmaz

Son çıkış rotası

Apr 15th, 2020
134
Never
Not a member of Pastebin yet? Sign Up, it unlocks many cool features!
  1. <?xml version='1.0' encoding='UTF-8'?>
  2. <gpx version="1.1" creator="https://www.komoot.de" xmlns="http://www.topografix.com/GPX/1/1" xmlns:xsi="http://www.w3.org/2001/XMLSchema-instance" xsi:schemaLocation="http://www.topografix.com/GPX/1/1 http://www.topografix.com/GPX/1/1/gpx.xsd">
  3.   <metadata>
  4.     <name>07. 0203 Likya Yolu - Lycian Way - 08 - Xanthos-Cavdir-Caykoy-Uzumlu</name>
  5.     <author>
  6.       <link href="https://www.komoot.de">
  7.         <text>komoot</text>
  8.         <type>text/html</type>
  9.       </link>
  10.     </author>
  11.   </metadata>
  12.   <trk>
  13.     <name>07. 0203 Likya Yolu - Lycian Way - 08 - Xanthos-Cavdir-Caykoy-Uzumlu</name>
  14.     <trkseg>
  15.       <trkpt lat="36.352253" lon="29.319866">
  16.         <ele>41.968738</ele>
  17.         <time>2019-09-22T13:46:12.000Z</time>
  18.       </trkpt>
  19.       <trkpt lat="36.352325" lon="29.319940">
  20.         <ele>41.968738</ele>
  21.         <time>2019-09-22T13:46:24.000Z</time>
  22.       </trkpt>
  23.       <trkpt lat="36.352420" lon="29.319984">
  24.         <ele>41.968738</ele>
  25.         <time>2019-09-22T13:46:34.000Z</time>
  26.       </trkpt>
  27.       <trkpt lat="36.352500" lon="29.320047">
  28.         <ele>41.968738</ele>
  29.         <time>2019-09-22T13:46:39.000Z</time>
  30.       </trkpt>
  31.       <trkpt lat="36.352585" lon="29.320084">
  32.         <ele>41.968738</ele>
  33.         <time>2019-09-22T13:46:45.000Z</time>
  34.       </trkpt>
  35.       <trkpt lat="36.352660" lon="29.320164">
  36.         <ele>41.968738</ele>
  37.         <time>2019-09-22T13:46:52.000Z</time>
  38.       </trkpt>
  39.       <trkpt lat="36.352753" lon="29.320204">
  40.         <ele>41.968738</ele>
  41.         <time>2019-09-22T13:46:59.000Z</time>
  42.       </trkpt>
  43.       <trkpt lat="36.352848" lon="29.320248">
  44.         <ele>41.968738</ele>
  45.         <time>2019-09-22T13:47:06.000Z</time>
  46.       </trkpt>
  47.       <trkpt lat="36.352940" lon="29.320293">
  48.         <ele>41.968738</ele>
  49.         <time>2019-09-22T13:47:12.000Z</time>
  50.       </trkpt>
  51.       <trkpt lat="36.353027" lon="29.320324">
  52.         <ele>41.968738</ele>
  53.         <time>2019-09-22T13:47:18.000Z</time>
  54.       </trkpt>
  55.       <trkpt lat="36.353110" lon="29.320390">
  56.         <ele>42.190121</ele>
  57.         <time>2019-09-22T13:47:31.000Z</time>
  58.       </trkpt>
  59.       <trkpt lat="36.353203" lon="29.320446">
  60.         <ele>42.531691</ele>
  61.         <time>2019-09-22T13:47:38.000Z</time>
  62.       </trkpt>
  63.       <trkpt lat="36.353287" lon="29.320492">
  64.         <ele>42.835083</ele>
  65.         <time>2019-09-22T13:47:43.000Z</time>
  66.       </trkpt>
  67.       <trkpt lat="36.353380" lon="29.320524">
  68.         <ele>43.154002</ele>
  69.         <time>2019-09-22T13:47:50.000Z</time>
  70.       </trkpt>
  71.       <trkpt lat="36.353470" lon="29.320549">
  72.         <ele>43.458775</ele>
  73.         <time>2019-09-22T13:48:01.000Z</time>
  74.       </trkpt>
  75.       <trkpt lat="36.353573" lon="29.320549">
  76.         <ele>43.799158</ele>
  77.         <time>2019-09-22T13:48:10.000Z</time>
  78.       </trkpt>
  79.       <trkpt lat="36.353672" lon="29.320557">
  80.         <ele>44.127013</ele>
  81.         <time>2019-09-22T13:48:17.000Z</time>
  82.       </trkpt>
  83.       <trkpt lat="36.353764" lon="29.320541">
  84.         <ele>44.434012</ele>
  85.         <time>2019-09-22T13:48:26.000Z</time>
  86.       </trkpt>
  87.       <trkpt lat="36.353850" lon="29.320505">
  88.         <ele>44.733931</ele>
  89.         <time>2019-09-22T13:48:38.000Z</time>
  90.       </trkpt>
  91.       <trkpt lat="36.353940" lon="29.320446">
  92.         <ele>45.070261</ele>
  93.         <time>2019-09-22T13:48:46.000Z</time>
  94.       </trkpt>
  95.       <trkpt lat="36.354015" lon="29.320381">
  96.         <ele>45.372516</ele>
  97.         <time>2019-09-22T13:48:53.000Z</time>
  98.       </trkpt>
  99.       <trkpt lat="36.354088" lon="29.320312">
  100.         <ele>45.675703</ele>
  101.         <time>2019-09-22T13:49:01.000Z</time>
  102.       </trkpt>
  103.       <trkpt lat="36.354170" lon="29.320242">
  104.         <ele>46.004552</ele>
  105.         <time>2019-09-22T13:49:11.000Z</time>
  106.       </trkpt>
  107.       <trkpt lat="36.354248" lon="29.320180">
  108.         <ele>46.310611</ele>
  109.         <time>2019-09-22T13:49:18.000Z</time>
  110.       </trkpt>
  111.       <trkpt lat="36.354320" lon="29.320103">
  112.         <ele>46.624636</ele>
  113.         <time>2019-09-22T13:49:27.000Z</time>
  114.       </trkpt>
  115.       <trkpt lat="36.354390" lon="29.320017">
  116.         <ele>46.950062</ele>
  117.         <time>2019-09-22T13:49:36.000Z</time>
  118.       </trkpt>
  119.       <trkpt lat="36.354470" lon="29.319954">
  120.         <ele>47.263125</ele>
  121.         <time>2019-09-22T13:49:45.000Z</time>
  122.       </trkpt>
  123.       <trkpt lat="36.354546" lon="29.319883">
  124.         <ele>47.577429</ele>
  125.         <time>2019-09-22T13:49:54.000Z</time>
  126.       </trkpt>
  127.       <trkpt lat="36.354626" lon="29.319818">
  128.         <ele>47.893374</ele>
  129.         <time>2019-09-22T13:50:03.000Z</time>
  130.       </trkpt>
  131.       <trkpt lat="36.354710" lon="29.319748">
  132.         <ele>48.954479</ele>
  133.         <time>2019-09-22T13:50:13.000Z</time>
  134.       </trkpt>
  135.       <trkpt lat="36.354810" lon="29.319689">
  136.         <ele>50.164520</ele>
  137.         <time>2019-09-22T13:50:22.000Z</time>
  138.       </trkpt>
  139.       <trkpt lat="36.354897" lon="29.319647">
  140.         <ele>51.184710</ele>
  141.         <time>2019-09-22T13:50:29.000Z</time>
  142.       </trkpt>
  143.       <trkpt lat="36.354992" lon="29.319584">
  144.         <ele>52.361801</ele>
  145.         <time>2019-09-22T13:50:39.000Z</time>
  146.       </trkpt>
  147.       <trkpt lat="36.355083" lon="29.319527">
  148.         <ele>53.475753</ele>
  149.         <time>2019-09-22T13:50:47.000Z</time>
  150.       </trkpt>
  151.       <trkpt lat="36.355170" lon="29.319470">
  152.         <ele>54.550852</ele>
  153.         <time>2019-09-22T13:50:56.000Z</time>
  154.       </trkpt>
  155.       <trkpt lat="36.355255" lon="29.319420">
  156.         <ele>55.578821</ele>
  157.         <time>2019-09-22T13:51:04.000Z</time>
  158.       </trkpt>
  159.       <trkpt lat="36.355347" lon="29.319368">
  160.         <ele>56.683593</ele>
  161.         <time>2019-09-22T13:51:13.000Z</time>
  162.       </trkpt>
  163.       <trkpt lat="36.355442" lon="29.319330">
  164.         <ele>57.774425</ele>
  165.         <time>2019-09-22T13:51:23.000Z</time>
  166.       </trkpt>
  167.       <trkpt lat="36.355530" lon="29.319288">
  168.         <ele>58.804808</ele>
  169.         <time>2019-09-22T13:51:33.000Z</time>
  170.       </trkpt>
  171.       <trkpt lat="36.355625" lon="29.319239">
  172.         <ele>59.929111</ele>
  173.         <time>2019-09-22T13:51:42.000Z</time>
  174.       </trkpt>
  175.       <trkpt lat="36.355790" lon="29.319130">
  176.         <ele>61.971785</ele>
  177.         <time>2019-09-22T13:52:37.000Z</time>
  178.       </trkpt>
  179.       <trkpt lat="36.355873" lon="29.319094">
  180.         <ele>62.932670</ele>
  181.         <time>2019-09-22T13:52:45.000Z</time>
  182.       </trkpt>
  183.       <trkpt lat="36.355960" lon="29.319044">
  184.         <ele>63.980432</ele>
  185.         <time>2019-09-22T13:52:54.000Z</time>
  186.       </trkpt>
  187.       <trkpt lat="36.356033" lon="29.318975">
  188.         <ele>64.983131</ele>
  189.         <time>2019-09-22T13:53:02.000Z</time>
  190.       </trkpt>
  191.       <trkpt lat="36.356106" lon="29.318895">
  192.         <ele>66.047267</ele>
  193.         <time>2019-09-22T13:53:11.000Z</time>
  194.       </trkpt>
  195.       <trkpt lat="36.356190" lon="29.318825">
  196.         <ele>67.152917</ele>
  197.         <time>2019-09-22T13:53:19.000Z</time>
  198.       </trkpt>
  199.       <trkpt lat="36.356277" lon="29.318768">
  200.         <ele>68.128045</ele>
  201.         <time>2019-09-22T13:53:29.000Z</time>
  202.       </trkpt>
  203.       <trkpt lat="36.356373" lon="29.318745">
  204.         <ele>69.034106</ele>
  205.         <time>2019-09-22T13:53:40.000Z</time>
  206.       </trkpt>
  207.       <trkpt lat="36.356472" lon="29.318739">
  208.         <ele>69.952653</ele>
  209.         <time>2019-09-22T13:53:49.000Z</time>
  210.       </trkpt>
  211.       <trkpt lat="36.356560" lon="29.318720">
  212.         <ele>70.780404</ele>
  213.         <time>2019-09-22T13:53:57.000Z</time>
  214.       </trkpt>
  215.       <trkpt lat="36.356660" lon="29.318712">
  216.         <ele>71.709047</ele>
  217.         <time>2019-09-22T13:54:05.000Z</time>
  218.       </trkpt>
  219.       <trkpt lat="36.356747" lon="29.318743">
  220.         <ele>72.547834</ele>
  221.         <time>2019-09-22T13:54:13.000Z</time>
  222.       </trkpt>
  223.       <trkpt lat="36.356840" lon="29.318764">
  224.         <ele>73.423820</ele>
  225.         <time>2019-09-22T13:54:23.000Z</time>
  226.       </trkpt>
  227.       <trkpt lat="36.356930" lon="29.318817">
  228.         <ele>74.346913</ele>
  229.         <time>2019-09-22T13:54:32.000Z</time>
  230.       </trkpt>
  231.       <trkpt lat="36.357020" lon="29.318836">
  232.         <ele>75.192931</ele>
  233.         <time>2019-09-22T13:54:41.000Z</time>
  234.       </trkpt>
  235.       <trkpt lat="36.357113" lon="29.318844">
  236.         <ele>76.056848</ele>
  237.         <time>2019-09-22T13:54:49.000Z</time>
  238.       </trkpt>
  239.       <trkpt lat="36.357210" lon="29.318863">
  240.         <ele>76.966883</ele>
  241.         <time>2019-09-22T13:55:00.000Z</time>
  242.       </trkpt>
  243.       <trkpt lat="36.357296" lon="29.318832">
  244.         <ele>77.796766</ele>
  245.         <time>2019-09-22T13:55:06.000Z</time>
  246.       </trkpt>
  247.       <trkpt lat="36.357390" lon="29.318802">
  248.         <ele>78.696197</ele>
  249.         <time>2019-09-22T13:55:14.000Z</time>
  250.       </trkpt>
  251.       <trkpt lat="36.357480" lon="29.318752">
  252.         <ele>79.609919</ele>
  253.         <time>2019-09-22T13:55:22.000Z</time>
  254.       </trkpt>
  255.       <trkpt lat="36.357574" lon="29.318716">
  256.         <ele>80.521529</ele>
  257.         <time>2019-09-22T13:55:31.000Z</time>
  258.       </trkpt>
  259.       <trkpt lat="36.357666" lon="29.318686">
  260.         <ele>81.403022</ele>
  261.         <time>2019-09-22T13:55:40.000Z</time>
  262.       </trkpt>
  263.       <trkpt lat="36.357754" lon="29.318647">
  264.         <ele>82.268922</ele>
  265.         <time>2019-09-22T13:55:45.000Z</time>
  266.       </trkpt>
  267.       <trkpt lat="36.357850" lon="29.318610">
  268.         <ele>83.200444</ele>
  269.         <time>2019-09-22T13:55:56.000Z</time>
  270.       </trkpt>
  271.       <trkpt lat="36.357944" lon="29.318575">
  272.         <ele>84.109882</ele>
  273.         <time>2019-09-22T13:56:05.000Z</time>
  274.       </trkpt>
  275.       <trkpt lat="36.358025" lon="29.318530">
  276.         <ele>84.339968</ele>
  277.         <time>2019-09-22T13:56:17.000Z</time>
  278.       </trkpt>
  279.       <trkpt lat="36.358110" lon="29.318481">
  280.         <ele>84.466373</ele>
  281.         <time>2019-09-22T13:56:24.000Z</time>
  282.       </trkpt>
  283.       <trkpt lat="36.358204" lon="29.318432">
  284.         <ele>84.603885</ele>
  285.         <time>2019-09-22T13:56:33.000Z</time>
  286.       </trkpt>
  287.       <trkpt lat="36.358295" lon="29.318394">
  288.         <ele>84.733385</ele>
  289.         <time>2019-09-22T13:56:39.000Z</time>
  290.       </trkpt>
  291.       <trkpt lat="36.358380" lon="29.318340">
  292.         <ele>84.862172</ele>
  293.         <time>2019-09-22T13:56:46.000Z</time>
  294.       </trkpt>
  295.       <trkpt lat="36.358463" lon="29.318289">
  296.         <ele>84.987084</ele>
  297.         <time>2019-09-22T13:56:53.000Z</time>
  298.       </trkpt>
  299.       <trkpt lat="36.358550" lon="29.318230">
  300.         <ele>85.120795</ele>
  301.         <time>2019-09-22T13:57:01.000Z</time>
  302.       </trkpt>
  303.       <trkpt lat="36.358643" lon="29.318172">
  304.         <ele>85.261171</ele>
  305.         <time>2019-09-22T13:57:09.000Z</time>
  306.       </trkpt>
  307.       <trkpt lat="36.358727" lon="29.318127">
  308.         <ele>85.384569</ele>
  309.         <time>2019-09-22T13:57:17.000Z</time>
  310.       </trkpt>
  311.       <trkpt lat="36.358814" lon="29.318090">
  312.         <ele>85.508612</ele>
  313.         <time>2019-09-22T13:57:28.000Z</time>
  314.       </trkpt>
  315.       <trkpt lat="36.358906" lon="29.318066">
  316.         <ele>85.635415</ele>
  317.         <time>2019-09-22T13:57:36.000Z</time>
  318.       </trkpt>
  319.       <trkpt lat="36.359005" lon="29.318016">
  320.         <ele>85.779574</ele>
  321.         <time>2019-09-22T13:57:42.000Z</time>
  322.       </trkpt>
  323.       <trkpt lat="36.359090" lon="29.317957">
  324.         <ele>85.910924</ele>
  325.         <time>2019-09-22T13:57:49.000Z</time>
  326.       </trkpt>
  327.       <trkpt lat="36.359170" lon="29.317905">
  328.         <ele>86.032722</ele>
  329.         <time>2019-09-22T13:57:59.000Z</time>
  330.       </trkpt>
  331.       <trkpt lat="36.359270" lon="29.317883">
  332.         <ele>86.169708</ele>
  333.         <time>2019-09-22T13:58:07.000Z</time>
  334.       </trkpt>
  335.       <trkpt lat="36.359367" lon="29.317862">
  336.         <ele>86.302520</ele>
  337.         <time>2019-09-22T13:58:14.000Z</time>
  338.       </trkpt>
  339.       <trkpt lat="36.359460" lon="29.317827">
  340.         <ele>86.433599</ele>
  341.         <time>2019-09-22T13:58:22.000Z</time>
  342.       </trkpt>
  343.       <trkpt lat="36.359554" lon="29.317799">
  344.         <ele>86.563988</ele>
  345.         <time>2019-09-22T13:58:31.000Z</time>
  346.       </trkpt>
  347.       <trkpt lat="36.359642" lon="29.317760">
  348.         <ele>86.744035</ele>
  349.         <time>2019-09-22T13:58:38.000Z</time>
  350.       </trkpt>
  351.       <trkpt lat="36.359740" lon="29.317734">
  352.         <ele>87.173206</ele>
  353.         <time>2019-09-22T13:58:47.000Z</time>
  354.       </trkpt>
  355.       <trkpt lat="36.359840" lon="29.317710">
  356.         <ele>87.609396</ele>
  357.         <time>2019-09-22T13:58:55.000Z</time>
  358.       </trkpt>
  359.       <trkpt lat="36.359936" lon="29.317694">
  360.         <ele>88.024217</ele>
  361.         <time>2019-09-22T13:59:16.000Z</time>
  362.       </trkpt>
  363.       <trkpt lat="36.360030" lon="29.317678">
  364.         <ele>88.430550</ele>
  365.         <time>2019-09-22T13:59:26.000Z</time>
  366.       </trkpt>
  367.       <trkpt lat="36.360123" lon="29.317678">
  368.         <ele>88.828835</ele>
  369.         <time>2019-09-22T13:59:37.000Z</time>
  370.       </trkpt>
  371.       <trkpt lat="36.360220" lon="29.317677">
  372.         <ele>89.244266</ele>
  373.         <time>2019-09-22T13:59:45.000Z</time>
  374.       </trkpt>
  375.       <trkpt lat="36.360317" lon="29.317652">
  376.         <ele>89.668536</ele>
  377.         <time>2019-09-22T13:59:52.000Z</time>
  378.       </trkpt>
  379.       <trkpt lat="36.360413" lon="29.317629">
  380.         <ele>90.087252</ele>
  381.         <time>2019-09-22T14:00:00.000Z</time>
  382.       </trkpt>
  383.       <trkpt lat="36.360504" lon="29.317638">
  384.         <ele>90.478207</ele>
  385.         <time>2019-09-22T14:00:19.000Z</time>
  386.       </trkpt>
  387.       <trkpt lat="36.360596" lon="29.317677">
  388.         <ele>90.894536</ele>
  389.         <time>2019-09-22T14:00:28.000Z</time>
  390.       </trkpt>
  391.       <trkpt lat="36.360687" lon="29.317700">
  392.         <ele>91.292247</ele>
  393.         <time>2019-09-22T14:00:35.000Z</time>
  394.       </trkpt>
  395.       <trkpt lat="36.360786" lon="29.317713">
  396.         <ele>91.718593</ele>
  397.         <time>2019-09-22T14:00:42.000Z</time>
  398.       </trkpt>
  399.       <trkpt lat="36.360886" lon="29.317726">
  400.         <ele>92.149197</ele>
  401.         <time>2019-09-22T14:00:52.000Z</time>
  402.       </trkpt>
  403.       <trkpt lat="36.360992" lon="29.317726">
  404.         <ele>92.603158</ele>
  405.         <time>2019-09-22T14:01:00.000Z</time>
  406.       </trkpt>
  407.       <trkpt lat="36.361084" lon="29.317760">
  408.         <ele>93.014239</ele>
  409.         <time>2019-09-22T14:01:09.000Z</time>
  410.       </trkpt>
  411.       <trkpt lat="36.361160" lon="29.317818">
  412.         <ele>93.396273</ele>
  413.         <time>2019-09-22T14:01:16.000Z</time>
  414.       </trkpt>
  415.       <trkpt lat="36.361244" lon="29.317888">
  416.         <ele>93.829512</ele>
  417.         <time>2019-09-22T14:01:25.000Z</time>
  418.       </trkpt>
  419.       <trkpt lat="36.361294" lon="29.317993">
  420.         <ele>94.250209</ele>
  421.         <time>2019-09-22T14:01:35.000Z</time>
  422.       </trkpt>
  423.       <trkpt lat="36.361343" lon="29.318090">
  424.         <ele>94.429655</ele>
  425.         <time>2019-09-22T14:01:42.000Z</time>
  426.       </trkpt>
  427.       <trkpt lat="36.361410" lon="29.318184">
  428.         <ele>94.525817</ele>
  429.         <time>2019-09-22T14:01:50.000Z</time>
  430.       </trkpt>
  431.       <trkpt lat="36.361440" lon="29.318302">
  432.         <ele>94.620607</ele>
  433.         <time>2019-09-22T14:02:04.000Z</time>
  434.       </trkpt>
  435.       <trkpt lat="36.361480" lon="29.318413">
  436.         <ele>94.713762</ele>
  437.         <time>2019-09-22T14:02:17.000Z</time>
  438.       </trkpt>
  439.       <trkpt lat="36.361546" lon="29.318514">
  440.         <ele>94.813400</ele>
  441.         <time>2019-09-22T14:02:22.000Z</time>
  442.       </trkpt>
  443.       <trkpt lat="36.361588" lon="29.318620">
  444.         <ele>94.903896</ele>
  445.         <time>2019-09-22T14:02:28.000Z</time>
  446.       </trkpt>
  447.       <trkpt lat="36.361637" lon="29.318716">
  448.         <ele>94.990963</ele>
  449.         <time>2019-09-22T14:02:51.000Z</time>
  450.       </trkpt>
  451.       <trkpt lat="36.361683" lon="29.318838">
  452.         <ele>95.094155</ele>
  453.         <time>2019-09-22T14:02:55.000Z</time>
  454.       </trkpt>
  455.       <trkpt lat="36.361717" lon="29.318943">
  456.         <ele>95.180848</ele>
  457.         <time>2019-09-22T14:03:01.000Z</time>
  458.       </trkpt>
  459.       <trkpt lat="36.361740" lon="29.319054">
  460.         <ele>95.268647</ele>
  461.         <time>2019-09-22T14:03:19.000Z</time>
  462.       </trkpt>
  463.       <trkpt lat="36.361767" lon="29.319178">
  464.         <ele>95.367046</ele>
  465.         <time>2019-09-22T14:03:36.000Z</time>
  466.       </trkpt>
  467.       <trkpt lat="36.361782" lon="29.319292">
  468.         <ele>95.455532</ele>
  469.         <time>2019-09-22T14:03:39.000Z</time>
  470.       </trkpt>
  471.       <trkpt lat="36.361797" lon="29.319407">
  472.         <ele>95.544773</ele>
  473.         <time>2019-09-22T14:03:47.000Z</time>
  474.       </trkpt>
  475.       <trkpt lat="36.361820" lon="29.319551">
  476.         <ele>95.657231</ele>
  477.         <time>2019-09-22T14:03:54.000Z</time>
  478.       </trkpt>
  479.       <trkpt lat="36.361830" lon="29.319672">
  480.         <ele>95.750407</ele>
  481.         <time>2019-09-22T14:04:01.000Z</time>
  482.       </trkpt>
  483.       <trkpt lat="36.361843" lon="29.319790">
  484.         <ele>95.841641</ele>
  485.         <time>2019-09-22T14:04:12.000Z</time>
  486.       </trkpt>
  487.       <trkpt lat="36.361874" lon="29.319946">
  488.         <ele>95.964726</ele>
  489.         <time>2019-09-22T14:04:23.000Z</time>
  490.       </trkpt>
  491.       <trkpt lat="36.361900" lon="29.320078">
  492.         <ele>96.068823</ele>
  493.         <time>2019-09-22T14:04:26.000Z</time>
  494.       </trkpt>
  495.       <trkpt lat="36.361920" lon="29.320210">
  496.         <ele>96.079093</ele>
  497.         <time>2019-09-22T14:04:30.000Z</time>
  498.       </trkpt>
  499.       <trkpt lat="36.361942" lon="29.320324">
  500.         <ele>96.079093</ele>
  501.         <time>2019-09-22T14:04:35.000Z</time>
  502.       </trkpt>
  503.       <trkpt lat="36.361970" lon="29.320433">
  504.         <ele>96.079093</ele>
  505.         <time>2019-09-22T14:04:42.000Z</time>
  506.       </trkpt>
  507.       <trkpt lat="36.361927" lon="29.320543">
  508.         <ele>96.079093</ele>
  509.         <time>2019-09-22T14:04:51.000Z</time>
  510.       </trkpt>
  511.       <trkpt lat="36.361910" lon="29.320656">
  512.         <ele>96.079093</ele>
  513.         <time>2019-09-22T14:05:00.000Z</time>
  514.       </trkpt>
  515.       <trkpt lat="36.361908" lon="29.320770">
  516.         <ele>96.079093</ele>
  517.         <time>2019-09-22T14:05:08.000Z</time>
  518.       </trkpt>
  519.       <trkpt lat="36.361866" lon="29.320877">
  520.         <ele>96.079093</ele>
  521.         <time>2019-09-22T14:05:16.000Z</time>
  522.       </trkpt>
  523.       <trkpt lat="36.361830" lon="29.320982">
  524.         <ele>96.079093</ele>
  525.         <time>2019-09-22T14:05:23.000Z</time>
  526.       </trkpt>
  527.       <trkpt lat="36.361794" lon="29.321095">
  528.         <ele>96.079093</ele>
  529.         <time>2019-09-22T14:05:31.000Z</time>
  530.       </trkpt>
  531.       <trkpt lat="36.361736" lon="29.321178">
  532.         <ele>96.079093</ele>
  533.         <time>2019-09-22T14:05:39.000Z</time>
  534.       </trkpt>
  535.       <trkpt lat="36.361700" lon="29.321285">
  536.         <ele>96.079093</ele>
  537.         <time>2019-09-22T14:05:48.000Z</time>
  538.       </trkpt>
  539.       <trkpt lat="36.361652" lon="29.321388">
  540.         <ele>96.079093</ele>
  541.         <time>2019-09-22T14:05:56.000Z</time>
  542.       </trkpt>
  543.       <trkpt lat="36.361595" lon="29.321484">
  544.         <ele>96.079093</ele>
  545.         <time>2019-09-22T14:06:04.000Z</time>
  546.       </trkpt>
  547.       <trkpt lat="36.361496" lon="29.321516">
  548.         <ele>96.079093</ele>
  549.         <time>2019-09-22T14:06:16.000Z</time>
  550.       </trkpt>
  551.       <trkpt lat="36.361404" lon="29.321524">
  552.         <ele>96.079093</ele>
  553.         <time>2019-09-22T14:06:24.000Z</time>
  554.       </trkpt>
  555.       <trkpt lat="36.361305" lon="29.321507">
  556.         <ele>96.079093</ele>
  557.         <time>2019-09-22T14:06:32.000Z</time>
  558.       </trkpt>
  559.       <trkpt lat="36.361250" lon="29.321413">
  560.         <ele>96.079093</ele>
  561.         <time>2019-09-22T14:06:41.000Z</time>
  562.       </trkpt>
  563.       <trkpt lat="36.361190" lon="29.321312">
  564.         <ele>96.079093</ele>
  565.         <time>2019-09-22T14:06:51.000Z</time>
  566.       </trkpt>
  567.       <trkpt lat="36.361137" lon="29.321224">
  568.         <ele>96.079093</ele>
  569.         <time>2019-09-22T14:07:01.000Z</time>
  570.       </trkpt>
  571.       <trkpt lat="36.361202" lon="29.321323">
  572.         <ele>96.079093</ele>
  573.         <time>2019-09-22T14:07:31.000Z</time>
  574.       </trkpt>
  575.     </trkseg>
  576.   </trk>
  577. </gpx>
RAW Paste Data